sensor_id;sensor_type;location;lat;lon;timestamp;P1;durP1;ratioP1;P2;durP2;ratioP2
4096;SDS011;2062;50.694;7.246;2022-07-06T00:00:04;4.57;;;2.58;;
4096;SDS011;2062;50.694;7.246;2022-07-06T00:02:32;4.22;;;1.90;;
4096;SDS011;2062;50.694;7.246;2022-07-06T00:04:59;5.13;;;2.30;;
4096;SDS011;2062;50.694;7.246;2022-07-06T00:07:26;4.83;;;2.10;;
4096;SDS011;2062;50.694;7.246;2022-07-06T00:09:54;4.72;;;2.40;;
4096;SDS011;2062;50.694;7.246;2022-07-06T00:12:20;5.45;;;2.20;;
4096;SDS011;2062;50.694;7.246;2022-07-06T00:14:47;4.22;;;2.10;;
4096;SDS011;2062;50.694;7.246;2022-07-06T00:17:14;5.32;;;2.42;;
4096;SDS011;2062;50.694;7.246;2022-07-06T00:19:41;4.77;;;2.20;;
4096;SDS011;2062;50.694;7.246;2022-07-06T00:22:08;7.22;;;2.40;;
4096;SDS011;2062;50.694;7.246;2022-07-06T00:24:34;5.53;;;2.20;;
4096;SDS011;2062;50.694;7.246;2022-07-06T00:27:03;4.10;;;2.08;;
4096;SDS011;2062;50.694;7.246;2022-07-06T00:29:30;3.90;;;2.20;;
4096;SDS011;2062;50.694;7.246;2022-07-06T00:31:57;5.03;;;2.10;;
4096;SDS011;2062;50.694;7.246;2022-07-06T00:34:24;5.35;;;2.10;;
4096;SDS011;2062;50.694;7.246;2022-07-06T00:36:51;5.80;;;2.10;;
4096;SDS011;2062;50.694;7.246;2022-07-06T00:39:17;5.45;;;2.10;;
4096;SDS011;2062;50.694;7.246;2022-07-06T00:41:46;3.70;;;2.00;;
4096;SDS011;2062;50.694;7.246;2022-07-06T00:44:14;4.23;;;1.97;;
4096;SDS011;2062;50.694;7.246;2022-07-06T00:46:41;5.45;;;2.00;;
4096;SDS011;2062;50.694;7.246;2022-07-06T00:49:08;4.53;;;1.92;;
4096;SDS011;2062;50.694;7.246;2022-07-06T00:51:55;4.10;;;1.90;;
4096;SDS011;2062;50.694;7.246;2022-07-06T00:54:23;4.05;;;1.80;;
4096;SDS011;2062;50.694;7.246;2022-07-06T00:56:51;4.20;;;1.90;;
4096;SDS011;2062;50.694;7.246;2022-07-06T00:59:19;4.32;;;1.85;;
4096;SDS011;2062;50.694;7.246;2022-07-06T01:01:46;4.63;;;2.00;;
4096;SDS011;2062;50.694;7.246;2022-07-06T01:04:13;4.03;;;2.10;;
4096;SDS011;2062;50.694;7.246;2022-07-06T01:06:39;4.70;;;1.92;;
4096;SDS011;2062;50.694;7.246;2022-07-06T01:09:06;4.03;;;2.00;;
4096;SDS011;2062;50.694;7.246;2022-07-06T01:11:33;4.55;;;2.05;;
4096;SDS011;2062;50.694;7.246;2022-07-06T01:13:59;4.85;;;2.10;;
4096;SDS011;2062;50.694;7.246;2022-07-06T01:16:28;4.45;;;1.90;;
4096;SDS011;2062;50.694;7.246;2022-07-06T01:18:55;5.55;;;2.13;;
4096;SDS011;2062;50.694;7.246;2022-07-06T01:21:23;3.90;;;2.00;;
4096;SDS011;2062;50.694;7.246;2022-07-06T01:23:49;3.90;;;2.00;;
4096;SDS011;2062;50.694;7.246;2022-07-06T01:26:17;3.85;;;1.98;;
4096;SDS011;2062;50.694;7.246;2022-07-06T01:28:45;4.03;;;1.85;;
4096;SDS011;2062;50.694;7.246;2022-07-06T01:31:15;4.70;;;1.80;;
4096;SDS011;2062;50.694;7.246;2022-07-06T01:33:44;4.73;;;1.83;;
4096;SDS011;2062;50.694;7.246;2022-07-06T01:36:11;4.00;;;1.90;;
4096;SDS011;2062;50.694;7.246;2022-07-06T01:38:49;7.35;;;2.35;;
4096;SDS011;2062;50.694;7.246;2022-07-06T01:41:17;3.60;;;1.80;;
4096;SDS011;2062;50.694;7.246;2022-07-06T01:43:44;3.80;;;1.95;;
4096;SDS011;2062;50.694;7.246;2022-07-06T01:46:11;3.90;;;2.00;;
4096;SDS011;2062;50.694;7.246;2022-07-06T01:48:38;4.05;;;1.73;;
4096;SDS011;2062;50.694;7.246;2022-07-06T01:51:05;4.30;;;2.10;;
4096;SDS011;2062;50.694;7.246;2022-07-06T01:53:32;3.92;;;2.08;;
4096;SDS011;2062;50.694;7.246;2022-07-06T01:56:00;4.60;;;2.10;;
4096;SDS011;2062;50.694;7.246;2022-07-06T01:58:27;4.60;;;1.83;;
4096;SDS011;2062;50.694;7.246;2022-07-06T02:00:53;3.83;;;1.70;;
4096;SDS011;2062;50.694;7.246;2022-07-06T02:03:20;3.78;;;1.77;;
4096;SDS011;2062;50.694;7.246;2022-07-06T02:05:47;4.78;;;2.00;;
4096;SDS011;2062;50.694;7.246;2022-07-06T02:08:14;3.75;;;1.80;;
4096;SDS011;2062;50.694;7.246;2022-07-06T02:10:41;4.37;;;2.10;;
4096;SDS011;2062;50.694;7.246;2022-07-06T02:13:09;4.50;;;2.13;;
4096;SDS011;2062;50.694;7.246;2022-07-06T02:15:36;3.95;;;1.92;;
4096;SDS011;2062;50.694;7.246;2022-07-06T02:18:02;4.15;;;1.95;;
4096;SDS011;2062;50.694;7.246;2022-07-06T02:20:29;4.68;;;2.20;;
4096;SDS011;2062;50.694;7.246;2022-07-06T02:22:56;4.20;;;1.83;;
4096;SDS011;2062;50.694;7.246;2022-07-06T02:25:23;5.05;;;1.77;;
4096;SDS011;2062;50.694;7.246;2022-07-06T02:27:50;4.85;;;1.70;;
4096;SDS011;2062;50.694;7.246;2022-07-06T02:30:18;4.25;;;1.75;;
4096;SDS011;2062;50.694;7.246;2022-07-06T02:32:45;4.00;;;2.00;;
4096;SDS011;2062;50.694;7.246;2022-07-06T02:35:12;3.77;;;1.70;;
4096;SDS011;2062;50.694;7.246;2022-07-06T02:37:38;5.75;;;2.00;;
4096;SDS011;2062;50.694;7.246;2022-07-06T02:40:06;3.85;;;1.77;;
4096;SDS011;2062;50.694;7.246;2022-07-06T02:42:33;4.15;;;2.00;;
4096;SDS011;2062;50.694;7.246;2022-07-06T02:45:00;3.95;;;1.80;;
4096;SDS011;2062;50.694;7.246;2022-07-06T02:47:28;3.60;;;1.77;;
4096;SDS011;2062;50.694;7.246;2022-07-06T02:49:55;4.18;;;1.90;;
4096;SDS011;2062;50.694;7.246;2022-07-06T02:52:21;3.83;;;1.90;;
4096;SDS011;2062;50.694;7.246;2022-07-06T02:54:48;3.63;;;1.73;;
4096;SDS011;2062;50.694;7.246;2022-07-06T02:57:15;4.63;;;1.70;;
4096;SDS011;2062;50.694;7.246;2022-07-06T02:59:42;3.90;;;1.80;;
4096;SDS011;2062;50.694;7.246;2022-07-06T03:02:09;3.97;;;1.70;;
4096;SDS011;2062;50.694;7.246;2022-07-06T03:04:37;4.88;;;1.80;;
4096;SDS011;2062;50.694;7.246;2022-07-06T03:07:03;3.60;;;1.75;;
4096;SDS011;2062;50.694;7.246;2022-07-06T03:09:30;3.70;;;1.70;;
4096;SDS011;2062;50.694;7.246;2022-07-06T03:11:57;4.10;;;1.87;;
4096;SDS011;2062;50.694;7.246;2022-07-06T03:14:23;3.50;;;1.70;;
4096;SDS011;2062;50.694;7.246;2022-07-06T03:16:50;4.15;;;2.10;;
4096;SDS011;2062;50.694;7.246;2022-07-06T03:19:18;3.60;;;1.80;;
4096;SDS011;2062;50.694;7.246;2022-07-06T03:21:46;3.85;;;1.90;;
4096;SDS011;2062;50.694;7.246;2022-07-06T03:24:13;3.70;;;1.83;;
4096;SDS011;2062;50.694;7.246;2022-07-06T03:26:39;3.92;;;1.60;;
4096;SDS011;2062;50.694;7.246;2022-07-06T03:29:06;4.07;;;1.90;;
4096;SDS011;2062;50.694;7.246;2022-07-06T03:31:33;3.88;;;1.80;;
4096;SDS011;2062;50.694;7.246;2022-07-06T03:34:00;5.53;;;2.00;;
4096;SDS011;2062;50.694;7.246;2022-07-06T03:36:26;4.17;;;1.50;;
4096;SDS011;2062;50.694;7.246;2022-07-06T03:38:54;4.45;;;1.90;;
4096;SDS011;2062;50.694;7.246;2022-07-06T03:41:21;4.10;;;1.77;;
4096;SDS011;2062;50.694;7.246;2022-07-06T03:43:48;3.47;;;1.60;;
4096;SDS011;2062;50.694;7.246;2022-07-06T03:46:14;4.13;;;1.85;;
4096;SDS011;2062;50.694;7.246;2022-07-06T03:48:41;4.00;;;1.93;;
4096;SDS011;2062;50.694;7.246;2022-07-06T03:51:08;3.83;;;1.80;;
4096;SDS011;2062;50.694;7.246;2022-07-06T03:53:35;5.05;;;1.95;;
4096;SDS011;2062;50.694;7.246;2022-07-06T03:56:03;6.38;;;2.05;;
4096;SDS011;2062;50.694;7.246;2022-07-06T03:58:48;5.28;;;1.98;;
4096;SDS011;2062;50.694;7.246;2022-07-06T04:01:15;8.23;;;1.73;;
4096;SDS011;2062;50.694;7.246;2022-07-06T04:03:41;4.75;;;1.73;;
4096;SDS011;2062;50.694;7.246;2022-07-06T04:06:09;5.60;;;1.90;;
4096;SDS011;2062;50.694;7.246;2022-07-06T04:08:36;4.97;;;1.70;;
4096;SDS011;2062;50.694;7.246;2022-07-06T04:11:04;4.30;;;1.60;;
4096;SDS011;2062;50.694;7.246;2022-07-06T04:13:31;4.83;;;1.70;;
4096;SDS011;2062;50.694;7.246;2022-07-06T04:15:58;4.32;;;1.67;;
4096;SDS011;2062;50.694;7.246;2022-07-06T04:18:25;4.38;;;1.80;;
4096;SDS011;2062;50.694;7.246;2022-07-06T04:20:51;6.00;;;1.83;;
4096;SDS011;2062;50.694;7.246;2022-07-06T04:23:18;9.50;;;2.20;;
4096;SDS011;2062;50.694;7.246;2022-07-06T04:25:45;5.10;;;1.80;;
4096;SDS011;2062;50.694;7.246;2022-07-06T04:28:13;5.60;;;1.70;;
4096;SDS011;2062;50.694;7.246;2022-07-06T04:30:39;6.47;;;1.92;;
4096;SDS011;2062;50.694;7.246;2022-07-06T04:33:06;8.20;;;2.10;;
4096;SDS011;2062;50.694;7.246;2022-07-06T04:35:33;4.85;;;1.90;;
4096;SDS011;2062;50.694;7.246;2022-07-06T04:38:00;6.13;;;2.00;;
4096;SDS011;2062;50.694;7.246;2022-07-06T04:40:26;5.05;;;1.85;;
4096;SDS011;2062;50.694;7.246;2022-07-06T04:42:53;6.57;;;1.80;;
4096;SDS011;2062;50.694;7.246;2022-07-06T04:45:21;4.97;;;1.70;;
4096;SDS011;2062;50.694;7.246;2022-07-06T04:47:48;7.57;;;1.85;;
4096;SDS011;2062;50.694;7.246;2022-07-06T04:50:14;4.93;;;1.90;;
4096;SDS011;2062;50.694;7.246;2022-07-06T04:52:41;6.32;;;1.67;;
4096;SDS011;2062;50.694;7.246;2022-07-06T04:55:08;4.20;;;1.85;;
4096;SDS011;2062;50.694;7.246;2022-07-06T04:57:35;5.38;;;1.80;;
4096;SDS011;2062;50.694;7.246;2022-07-06T05:00:02;7.68;;;1.80;;
4096;SDS011;2062;50.694;7.246;2022-07-06T05:02:32;7.43;;;1.63;;
4096;SDS011;2062;50.694;7.246;2022-07-06T05:04:58;6.40;;;1.95;;
4096;SDS011;2062;50.694;7.246;2022-07-06T05:07:25;5.60;;;1.80;;
4096;SDS011;2062;50.694;7.246;2022-07-06T05:09:54;5.43;;;1.80;;
4096;SDS011;2062;50.694;7.246;2022-07-06T05:12:20;5.90;;;2.00;;
4096;SDS011;2062;50.694;7.246;2022-07-06T05:14:47;5.53;;;1.80;;
4096;SDS011;2062;50.694;7.246;2022-07-06T05:17:14;6.85;;;1.63;;
4096;SDS011;2062;50.694;7.246;2022-07-06T05:19:42;6.00;;;1.80;;
4096;SDS011;2062;50.694;7.246;2022-07-06T05:22:08;5.00;;;1.90;;
4096;SDS011;2062;50.694;7.246;2022-07-06T05:24:35;4.65;;;1.60;;
4096;SDS011;2062;50.694;7.246;2022-07-06T05:27:02;5.53;;;1.90;;
4096;SDS011;2062;50.694;7.246;2022-07-06T05:29:29;4.85;;;1.70;;
4096;SDS011;2062;50.694;7.246;2022-07-06T05:31:56;3.92;;;1.80;;
4096;SDS011;2062;50.694;7.246;2022-07-06T05:34:22;6.47;;;1.70;;
4096;SDS011;2062;50.694;7.246;2022-07-06T05:36:50;4.68;;;1.90;;
4096;SDS011;2062;50.694;7.246;2022-07-06T05:39:17;5.67;;;1.97;;
4096;SDS011;2062;50.694;7.246;2022-07-06T05:41:46;6.57;;;2.10;;
4096;SDS011;2062;50.694;7.246;2022-07-06T05:44:12;4.80;;;2.03;;
4096;SDS011;2062;50.694;7.246;2022-07-06T05:46:39;5.20;;;2.05;;
4096;SDS011;2062;50.694;7.246;2022-07-06T05:49:06;4.95;;;1.80;;
4096;SDS011;2062;50.694;7.246;2022-07-06T05:51:52;5.23;;;1.60;;
4096;SDS011;2062;50.694;7.246;2022-07-06T05:54:19;4.32;;;1.77;;
4096;SDS011;2062;50.694;7.246;2022-07-06T05:56:45;5.10;;;1.70;;
4096;SDS011;2062;50.694;7.246;2022-07-06T05:59:12;4.65;;;2.00;;
4096;SDS011;2062;50.694;7.246;2022-07-06T06:01:39;5.55;;;1.83;;
4096;SDS011;2062;50.694;7.246;2022-07-06T06:04:05;4.30;;;1.93;;
4096;SDS011;2062;50.694;7.246;2022-07-06T06:06:32;4.50;;;1.88;;
4096;SDS011;2062;50.694;7.246;2022-07-06T06:09:00;4.75;;;1.90;;
4096;SDS011;2062;50.694;7.246;2022-07-06T06:11:27;4.95;;;1.73;;
4096;SDS011;2062;50.694;7.246;2022-07-06T06:13:53;4.53;;;2.00;;
4096;SDS011;2062;50.694;7.246;2022-07-06T06:16:20;4.83;;;1.60;;
4096;SDS011;2062;50.694;7.246;2022-07-06T06:18:47;4.95;;;1.90;;
4096;SDS011;2062;50.694;7.246;2022-07-06T06:21:13;4.45;;;1.95;;
4096;SDS011;2062;50.694;7.246;2022-07-06T06:23:40;4.20;;;1.70;;
4096;SDS011;2062;50.694;7.246;2022-07-06T06:26:08;4.65;;;1.80;;
4096;SDS011;2062;50.694;7.246;2022-07-06T06:28:35;4.57;;;1.50;;
4096;SDS011;2062;50.694;7.246;2022-07-06T06:31:02;4.40;;;1.80;;
4096;SDS011;2062;50.694;7.246;2022-07-06T06:33:29;6.10;;;1.75;;
4096;SDS011;2062;50.694;7.246;2022-07-06T06:35:55;4.38;;;1.98;;
4096;SDS011;2062;50.694;7.246;2022-07-06T06:38:22;5.15;;;1.80;;
4096;SDS011;2062;50.694;7.246;2022-07-06T06:40:51;4.20;;;1.53;;
4096;SDS011;2062;50.694;7.246;2022-07-06T06:43:20;9.18;;;2.05;;
4096;SDS011;2062;50.694;7.246;2022-07-06T06:45:47;5.97;;;1.95;;
4096;SDS011;2062;50.694;7.246;2022-07-06T06:48:13;5.35;;;1.90;;
4096;SDS011;2062;50.694;7.246;2022-07-06T06:50:40;4.38;;;1.83;;
4096;SDS011;2062;50.694;7.246;2022-07-06T06:53:07;5.57;;;1.60;;
4096;SDS011;2062;50.694;7.246;2022-07-06T06:55:33;4.18;;;1.77;;
4096;SDS011;2062;50.694;7.246;2022-07-06T06:58:00;7.18;;;1.88;;
4096;SDS011;2062;50.694;7.246;2022-07-06T07:00:28;6.63;;;2.00;;
4096;SDS011;2062;50.694;7.246;2022-07-06T07:02:55;7.55;;;1.92;;
4096;SDS011;2062;50.694;7.246;2022-07-06T07:05:21;6.13;;;1.80;;
4096;SDS011;2062;50.694;7.246;2022-07-06T07:07:48;8.80;;;2.22;;
4096;SDS011;2062;50.694;7.246;2022-07-06T07:10:15;5.50;;;1.77;;
4096;SDS011;2062;50.694;7.246;2022-07-06T07:12:42;6.85;;;1.65;;
4096;SDS011;2062;50.694;7.246;2022-07-06T07:15:10;5.97;;;1.60;;
4096;SDS011;2062;50.694;7.246;2022-07-06T07:17:38;6.03;;;1.50;;
4096;SDS011;2062;50.694;7.246;2022-07-06T07:20:06;4.75;;;1.40;;
4096;SDS011;2062;50.694;7.246;2022-07-06T07:22:33;7.25;;;1.30;;
4096;SDS011;2062;50.694;7.246;2022-07-06T07:25:00;5.88;;;1.30;;
4096;SDS011;2062;50.694;7.246;2022-07-06T07:27:27;4.95;;;1.10;;
4096;SDS011;2062;50.694;7.246;2022-07-06T07:29:53;5.33;;;1.30;;
4096;SDS011;2062;50.694;7.246;2022-07-06T07:32:20;4.55;;;1.40;;
4096;SDS011;2062;50.694;7.246;2022-07-06T07:34:48;4.85;;;1.27;;
4096;SDS011;2062;50.694;7.246;2022-07-06T07:37:15;7.28;;;1.40;;
4096;SDS011;2062;50.694;7.246;2022-07-06T07:39:41;6.25;;;1.30;;
4096;SDS011;2062;50.694;7.246;2022-07-06T07:42:08;4.87;;;1.20;;
4096;SDS011;2062;50.694;7.246;2022-07-06T07:44:35;4.95;;;1.40;;
4096;SDS011;2062;50.694;7.246;2022-07-06T07:47:03;5.30;;;1.42;;
4096;SDS011;2062;50.694;7.246;2022-07-06T07:49:30;5.55;;;1.25;;
4096;SDS011;2062;50.694;7.246;2022-07-06T07:51:58;6.28;;;1.45;;
4096;SDS011;2062;50.694;7.246;2022-07-06T07:54:25;4.63;;;1.20;;
4096;SDS011;2062;50.694;7.246;2022-07-06T07:56:51;5.80;;;1.65;;
4096;SDS011;2062;50.694;7.246;2022-07-06T07:59:19;4.55;;;1.40;;
4096;SDS011;2062;50.694;7.246;2022-07-06T08:01:45;5.43;;;1.30;;
4096;SDS011;2062;50.694;7.246;2022-07-06T08:04:12;4.43;;;1.35;;
4096;SDS011;2062;50.694;7.246;2022-07-06T08:06:39;4.83;;;1.30;;
4096;SDS011;2062;50.694;7.246;2022-07-06T08:09:07;4.70;;;1.10;;
4096;SDS011;2062;50.694;7.246;2022-07-06T08:11:34;4.00;;;1.40;;
4096;SDS011;2062;50.694;7.246;2022-07-06T08:14:01;5.35;;;1.20;;
4096;SDS011;2062;50.694;7.246;2022-07-06T08:16:28;11.38;;;1.63;;
4096;SDS011;2062;50.694;7.246;2022-07-06T08:18:55;4.23;;;1.27;;
4096;SDS011;2062;50.694;7.246;2022-07-06T08:21:22;4.00;;;1.25;;
4096;SDS011;2062;50.694;7.246;2022-07-06T08:23:49;5.15;;;1.27;;
4096;SDS011;2062;50.694;7.246;2022-07-06T08:26:17;7.05;;;1.50;;
4096;SDS011;2062;50.694;7.246;2022-07-06T08:28:44;5.63;;;1.38;;
4096;SDS011;2062;50.694;7.246;2022-07-06T08:31:11;3.70;;;1.10;;
4096;SDS011;2062;50.694;7.246;2022-07-06T08:33:38;5.28;;;1.30;;
4096;SDS011;2062;50.694;7.246;2022-07-06T08:36:05;4.30;;;1.20;;
4096;SDS011;2062;50.694;7.246;2022-07-06T08:38:32;6.55;;;1.20;;
4096;SDS011;2062;50.694;7.246;2022-07-06T08:40:59;3.80;;;1.33;;
4096;SDS011;2062;50.694;7.246;2022-07-06T08:43:27;6.67;;;1.40;;
4096;SDS011;2062;50.694;7.246;2022-07-06T08:45:54;5.18;;;1.30;;
4096;SDS011;2062;50.694;7.246;2022-07-06T08:48:22;4.85;;;1.40;;
4096;SDS011;2062;50.694;7.246;2022-07-06T08:50:49;3.78;;;1.40;;
4096;SDS011;2062;50.694;7.246;2022-07-06T08:53:18;3.97;;;1.40;;
4096;SDS011;2062;50.694;7.246;2022-07-06T08:55:44;5.23;;;1.10;;
4096;SDS011;2062;50.694;7.246;2022-07-06T08:58:12;4.43;;;1.20;;
4096;SDS011;2062;50.694;7.246;2022-07-06T09:00:41;4.70;;;1.33;;
4096;SDS011;2062;50.694;7.246;2022-07-06T09:03:10;4.20;;;1.10;;
4096;SDS011;2062;50.694;7.246;2022-07-06T09:05:39;5.15;;;1.30;;
4096;SDS011;2062;50.694;7.246;2022-07-06T09:08:06;3.73;;;1.30;;
4096;SDS011;2062;50.694;7.246;2022-07-06T09:10:33;5.35;;;1.20;;
4096;SDS011;2062;50.694;7.246;2022-07-06T09:13:03;3.83;;;1.30;;
4096;SDS011;2062;50.694;7.246;2022-07-06T09:15:30;3.50;;;1.17;;
4096;SDS011;2062;50.694;7.246;2022-07-06T09:17:58;4.05;;;1.35;;
4096;SDS011;2062;50.694;7.246;2022-07-06T09:20:25;4.57;;;1.37;;
4096;SDS011;2062;50.694;7.246;2022-07-06T09:22:55;4.57;;;1.20;;
4096;SDS011;2062;50.694;7.246;2022-07-06T09:25:24;5.35;;;1.75;;
4096;SDS011;2062;50.694;7.246;2022-07-06T09:27:52;3.83;;;1.40;;
4096;SDS011;2062;50.694;7.246;2022-07-06T09:30:20;5.70;;;1.63;;
4096;SDS011;2062;50.694;7.246;2022-07-06T09:32:48;4.10;;;1.30;;
4096;SDS011;2062;50.694;7.246;2022-07-06T09:35:20;7.13;;;1.38;;
4096;SDS011;2062;50.694;7.246;2022-07-06T09:37:52;3.90;;;1.17;;
4096;SDS011;2062;50.694;7.246;2022-07-06T09:40:30;3.83;;;1.40;;
4096;SDS011;2062;50.694;7.246;2022-07-06T09:43:07;6.75;;;1.60;;
4096;SDS011;2062;50.694;7.246;2022-07-06T09:45:39;6.23;;;1.30;;
4096;SDS011;2062;50.694;7.246;2022-07-06T09:48:07;4.68;;;1.30;;
4096;SDS011;2062;50.694;7.246;2022-07-06T09:50:41;5.57;;;1.50;;
4096;SDS011;2062;50.694;7.246;2022-07-06T09:53:09;5.00;;;1.60;;
4096;SDS011;2062;50.694;7.246;2022-07-06T09:55:36;7.20;;;1.42;;
4096;SDS011;2062;50.694;7.246;2022-07-06T09:58:03;5.10;;;1.50;;
4096;SDS011;2062;50.694;7.246;2022-07-06T10:00:30;4.90;;;1.60;;
4096;SDS011;2062;50.694;7.246;2022-07-06T10:02:57;6.28;;;1.63;;
4096;SDS011;2062;50.694;7.246;2022-07-06T10:05:25;4.72;;;1.75;;
4096;SDS011;2062;50.694;7.246;2022-07-06T10:07:57;5.07;;;1.85;;
4096;SDS011;2062;50.694;7.246;2022-07-06T10:10:26;5.00;;;1.80;;
4096;SDS011;2062;50.694;7.246;2022-07-06T10:12:54;7.85;;;1.90;;
4096;SDS011;2062;50.694;7.246;2022-07-06T10:15:22;5.15;;;1.73;;
4096;SDS011;2062;50.694;7.246;2022-07-06T10:17:50;5.00;;;1.90;;
4096;SDS011;2062;50.694;7.246;2022-07-06T10:20:17;4.30;;;1.63;;
4096;SDS011;2062;50.694;7.246;2022-07-06T10:22:44;5.87;;;1.60;;
4096;SDS011;2062;50.694;7.246;2022-07-06T10:25:14;6.25;;;1.67;;
4096;SDS011;2062;50.694;7.246;2022-07-06T10:27:41;4.53;;;1.48;;
4096;SDS011;2062;50.694;7.246;2022-07-06T10:30:09;5.03;;;1.40;;
4096;SDS011;2062;50.694;7.246;2022-07-06T10:32:37;5.50;;;1.80;;
4096;SDS011;2062;50.694;7.246;2022-07-06T10:35:07;5.73;;;1.80;;
4096;SDS011;2062;50.694;7.246;2022-07-06T10:37:34;5.60;;;1.67;;
4096;SDS011;2062;50.694;7.246;2022-07-06T10:40:01;6.72;;;2.05;;
4096;SDS011;2062;50.694;7.246;2022-07-06T10:42:47;4.53;;;1.63;;
4096;SDS011;2062;50.694;7.246;2022-07-06T10:45:19;6.97;;;1.75;;
4096;SDS011;2062;50.694;7.246;2022-07-06T10:48:15;5.67;;;1.77;;
4096;SDS011;2062;50.694;7.246;2022-07-06T10:50:45;6.07;;;1.90;;
4096;SDS011;2062;50.694;7.246;2022-07-06T10:53:15;4.65;;;1.90;;
4096;SDS011;2062;50.694;7.246;2022-07-06T10:55:43;5.80;;;1.85;;
4096;SDS011;2062;50.694;7.246;2022-07-06T10:58:14;8.70;;;2.00;;
4096;SDS011;2062;50.694;7.246;2022-07-06T11:00:47;7.60;;;2.00;;
4096;SDS011;2062;50.694;7.246;2022-07-06T11:06:08;5.40;;;1.85;;
4096;SDS011;2062;50.694;7.246;2022-07-06T11:08:42;5.93;;;2.05;;
4096;SDS011;2062;50.694;7.246;2022-07-06T11:11:17;5.13;;;2.00;;
4096;SDS011;2062;50.694;7.246;2022-07-06T11:13:56;5.30;;;1.90;;
4096;SDS011;2062;50.694;7.246;2022-07-06T11:16:26;5.05;;;1.80;;
4096;SDS011;2062;50.694;7.246;2022-07-06T11:19:02;5.30;;;1.90;;
4096;SDS011;2062;50.694;7.246;2022-07-06T11:21:32;5.25;;;1.60;;
4096;SDS011;2062;50.694;7.246;2022-07-06T11:24:01;6.32;;;1.80;;
4096;SDS011;2062;50.694;7.246;2022-07-06T11:26:29;4.97;;;2.00;;
4096;SDS011;2062;50.694;7.246;2022-07-06T11:28:59;5.05;;;1.60;;
4096;SDS011;2062;50.694;7.246;2022-07-06T11:31:26;4.65;;;1.70;;
4096;SDS011;2062;50.694;7.246;2022-07-06T11:33:53;6.63;;;1.60;;
4096;SDS011;2062;50.694;7.246;2022-07-06T11:36:20;5.78;;;1.70;;
4096;SDS011;2062;50.694;7.246;2022-07-06T11:38:48;6.37;;;1.60;;
4096;SDS011;2062;50.694;7.246;2022-07-06T11:41:16;4.47;;;1.80;;
4096;SDS011;2062;50.694;7.246;2022-07-06T11:43:44;3.92;;;1.73;;
4096;SDS011;2062;50.694;7.246;2022-07-06T11:46:24;6.93;;;1.88;;
4096;SDS011;2062;50.694;7.246;2022-07-06T11:48:52;3.75;;;1.50;;
4096;SDS011;2062;50.694;7.246;2022-07-06T11:51:20;4.17;;;1.60;;
4096;SDS011;2062;50.694;7.246;2022-07-06T11:53:48;3.90;;;1.40;;
4096;SDS011;2062;50.694;7.246;2022-07-06T11:56:17;4.30;;;1.52;;
4096;SDS011;2062;50.694;7.246;2022-07-06T11:58:46;5.13;;;1.40;;
4096;SDS011;2062;50.694;7.246;2022-07-06T12:01:15;5.97;;;1.50;;
4096;SDS011;2062;50.694;7.246;2022-07-06T12:03:44;5.33;;;1.50;;
4096;SDS011;2062;50.694;7.246;2022-07-06T12:06:15;6.88;;;1.70;;
4096;SDS011;2062;50.694;7.246;2022-07-06T12:08:44;4.75;;;1.33;;
4096;SDS011;2062;50.694;7.246;2022-07-06T12:11:16;4.32;;;1.60;;
4096;SDS011;2062;50.694;7.246;2022-07-06T12:13:45;3.60;;;1.50;;
4096;SDS011;2062;50.694;7.246;2022-07-06T12:16:12;3.87;;;1.50;;
4096;SDS011;2062;50.694;7.246;2022-07-06T12:18:41;5.30;;;1.35;;
4096;SDS011;2062;50.694;7.246;2022-07-06T12:21:11;5.55;;;1.58;;
4096;SDS011;2062;50.694;7.246;2022-07-06T12:23:42;5.90;;;1.70;;
4096;SDS011;2062;50.694;7.246;2022-07-06T12:26:11;4.53;;;1.30;;
4096;SDS011;2062;50.694;7.246;2022-07-06T12:28:39;5.20;;;1.57;;
4096;SDS011;2062;50.694;7.246;2022-07-06T12:31:06;5.10;;;1.30;;
4096;SDS011;2062;50.694;7.246;2022-07-06T12:33:33;4.43;;;1.40;;
4096;SDS011;2062;50.694;7.246;2022-07-06T12:36:12;5.97;;;1.42;;
4096;SDS011;2062;50.694;7.246;2022-07-06T12:38:43;4.55;;;1.75;;
4096;SDS011;2062;50.694;7.246;2022-07-06T12:41:24;5.57;;;1.50;;
4096;SDS011;2062;50.694;7.246;2022-07-06T12:44:04;3.50;;;1.50;;
4096;SDS011;2062;50.694;7.246;2022-07-06T12:46:33;6.07;;;1.70;;
4096;SDS011;2062;50.694;7.246;2022-07-06T12:49:03;5.45;;;1.60;;
4096;SDS011;2062;50.694;7.246;2022-07-06T12:51:51;4.03;;;1.70;;
4096;SDS011;2062;50.694;7.246;2022-07-06T12:54:19;6.00;;;1.70;;
4096;SDS011;2062;50.694;7.246;2022-07-06T12:57:02;6.68;;;1.65;;
4096;SDS011;2062;50.694;7.246;2022-07-06T12:59:38;5.90;;;1.70;;
4096;SDS011;2062;50.694;7.246;2022-07-06T13:02:06;5.78;;;1.90;;
4096;SDS011;2062;50.694;7.246;2022-07-06T13:04:35;4.18;;;1.90;;
4096;SDS011;2062;50.694;7.246;2022-07-06T13:07:04;5.70;;;1.63;;
4096;SDS011;2062;50.694;7.246;2022-07-06T13:09:32;7.70;;;1.60;;
4096;SDS011;2062;50.694;7.246;2022-07-06T13:11:59;5.95;;;1.58;;
4096;SDS011;2062;50.694;7.246;2022-07-06T13:14:26;6.47;;;1.73;;
4096;SDS011;2062;50.694;7.246;2022-07-06T13:16:53;5.90;;;1.63;;
4096;SDS011;2062;50.694;7.246;2022-07-06T13:19:20;6.97;;;1.90;;
4096;SDS011;2062;50.694;7.246;2022-07-06T13:21:47;5.80;;;1.60;;
4096;SDS011;2062;50.694;7.246;2022-07-06T13:24:15;4.80;;;1.60;;
4096;SDS011;2062;50.694;7.246;2022-07-06T13:26:42;6.93;;;1.70;;
4096;SDS011;2062;50.694;7.246;2022-07-06T13:29:09;4.47;;;1.67;;
4096;SDS011;2062;50.694;7.246;2022-07-06T13:31:37;6.67;;;1.53;;
4096;SDS011;2062;50.694;7.246;2022-07-06T13:34:04;5.65;;;1.30;;
4096;SDS011;2062;50.694;7.246;2022-07-06T13:36:32;6.82;;;1.48;;
4096;SDS011;2062;50.694;7.246;2022-07-06T13:38:59;4.47;;;1.55;;
4096;SDS011;2062;50.694;7.246;2022-07-06T13:41:27;6.97;;;1.58;;
4096;SDS011;2062;50.694;7.246;2022-07-06T13:43:54;5.47;;;1.70;;
4096;SDS011;2062;50.694;7.246;2022-07-06T13:46:21;4.75;;;1.45;;
4096;SDS011;2062;50.694;7.246;2022-07-06T13:48:48;7.22;;;1.92;;
4096;SDS011;2062;50.694;7.246;2022-07-06T13:51:15;5.82;;;1.60;;
4096;SDS011;2062;50.694;7.246;2022-07-06T13:53:42;4.75;;;1.55;;
4096;SDS011;2062;50.694;7.246;2022-07-06T13:56:10;5.10;;;1.63;;
4096;SDS011;2062;50.694;7.246;2022-07-06T13:58:39;5.30;;;1.67;;
4096;SDS011;2062;50.694;7.246;2022-07-06T14:01:05;5.38;;;1.70;;
4096;SDS011;2062;50.694;7.246;2022-07-06T14:03:32;5.85;;;1.80;;
4096;SDS011;2062;50.694;7.246;2022-07-06T14:06:00;7.30;;;1.60;;
4096;SDS011;2062;50.694;7.246;2022-07-06T14:08:27;7.30;;;1.47;;
4096;SDS011;2062;50.694;7.246;2022-07-06T14:10:54;4.43;;;1.33;;
4096;SDS011;2062;50.694;7.246;2022-07-06T14:13:22;5.10;;;1.73;;
4096;SDS011;2062;50.694;7.246;2022-07-06T14:15:50;6.05;;;1.70;;
4096;SDS011;2062;50.694;7.246;2022-07-06T14:18:18;5.80;;;1.75;;
4096;SDS011;2062;50.694;7.246;2022-07-06T14:20:45;9.17;;;1.63;;
4096;SDS011;2062;50.694;7.246;2022-07-06T14:23:13;6.88;;;1.55;;
4096;SDS011;2062;50.694;7.246;2022-07-06T14:25:40;7.57;;;1.80;;
4096;SDS011;2062;50.694;7.246;2022-07-06T14:28:08;7.50;;;1.60;;
4096;SDS011;2062;50.694;7.246;2022-07-06T14:30:35;5.78;;;1.80;;
4096;SDS011;2062;50.694;7.246;2022-07-06T14:33:04;6.23;;;1.53;;
4096;SDS011;2062;50.694;7.246;2022-07-06T14:35:34;6.20;;;1.33;;
4096;SDS011;2062;50.694;7.246;2022-07-06T14:38:01;6.68;;;1.85;;
4096;SDS011;2062;50.694;7.246;2022-07-06T14:40:28;5.03;;;1.55;;
4096;SDS011;2062;50.694;7.246;2022-07-06T14:42:55;3.95;;;1.60;;
4096;SDS011;2062;50.694;7.246;2022-07-06T14:45:23;7.33;;;1.60;;
4096;SDS011;2062;50.694;7.246;2022-07-06T14:47:50;4.35;;;1.50;;
4096;SDS011;2062;50.694;7.246;2022-07-06T14:50:18;4.90;;;1.70;;
4096;SDS011;2062;50.694;7.246;2022-07-06T14:52:45;5.00;;;1.70;;
4096;SDS011;2062;50.694;7.246;2022-07-06T14:55:12;6.15;;;1.52;;
4096;SDS011;2062;50.694;7.246;2022-07-06T14:57:39;4.67;;;1.53;;
4096;SDS011;2062;50.694;7.246;2022-07-06T15:00:06;5.72;;;1.50;;
4096;SDS011;2062;50.694;7.246;2022-07-06T15:02:34;6.22;;;1.73;;
4096;SDS011;2062;50.694;7.246;2022-07-06T15:05:00;5.60;;;1.63;;
4096;SDS011;2062;50.694;7.246;2022-07-06T15:07:29;8.30;;;1.77;;
4096;SDS011;2062;50.694;7.246;2022-07-06T15:09:56;5.57;;;1.50;;
4096;SDS011;2062;50.694;7.246;2022-07-06T15:12:23;4.88;;;1.50;;
4096;SDS011;2062;50.694;7.246;2022-07-06T15:14:50;5.25;;;1.60;;
4096;SDS011;2062;50.694;7.246;2022-07-06T15:17:16;7.25;;;1.52;;
4096;SDS011;2062;50.694;7.246;2022-07-06T15:19:44;4.20;;;1.45;;
4096;SDS011;2062;50.694;7.246;2022-07-06T15:22:10;5.37;;;1.70;;